You are not logged in, Click here to log in
Sir Seewoosagur Ramgoolam International Airport / FIMP Port Louis
ICAO: FIMP Country: Port Louis
Latitude: -20.4302 Longitude: 57.6836
Total Arrivals: 3 Total Departures: 2
Latest Arrival: MK287 (FMMI-FIMP)錦光. 周 Latest Departure: MK843 (FIMP-FACT)錦光. 周
Scenery: https://en.wikipedia.org/wiki/President_Obiang_Nguema_International_Airport
METAR : FIMP 092200Z 34004KT 9999 FEW018 25/23 Q1013

Sir Seewoosagur Ramgoolam International Airport

You are accessing this site from IP address 35.170.81.210. Virtual Airline. CMS by phpVMS.Website designed by Zumeweb and edited by Theo Bearman.
There is 0 User(s) Online: | and 10 Guest(s) Online.
All information on this site is for fight simulation purposes only. This site is for flight logging for pilots of Virtual Airline&模擬飛行論壇 FlySim only.